PWSweather.com
Personal Weather Stations
Station Observations
IONTARIO88
Lincoln, ON L0R

Lincoln, ON L0R

Lat: 43.1763563, Lon: -79.4719525

Elevation: 297

Station Type: Davis Vantage Pro 2 Plus

http://www.beamsvillewx.ca

High Low Average
Temperature 39.7°F4.3°C 36.0°F2.2°C 37.5°F3.1°C
Dew Point 37.4°F3.0°C 34.4°F1.3°C 35.7°F2.1°C
Winds 2.0 mph 3.2 kmh Calm Calm Calm ENECalm ENE
Wind Gusts 5.0 mph8.0 kmh -- 1.0 mph1.6 kmh
Humidity 94% 91% 93%
Pressure 30.06 in1017.9 mb 29.64 in1003.7 mb -
Precipitation 0.49 in12.4 mm - -
Hour Temp Dew Point Humidity Winds Wind Gusts Pressure Precip Precip Rate Daily Precip Total
12:00 AM 39.6°F4.2°C 37.2°F2.9°C 91% Calm Calm -- 30.06 in1017.9 mb 0.00 in0.0 mm 0.00 in0.0 mm 0.00 in0.0 mm
12:15 AM 39.6°F4.2°C 37.2°F2.9°C 91% Calm Calm -- 30.06 in1017.9 mb 0.00 in0.0 mm 0.00 in0.0 mm 0.00 in0.0 mm
12:30 AM 39.6°F4.2°C 37.4°F3.0°C 92% Calm Calm -- 30.06 in1017.9 mb 0.00 in0.0 mm 0.00 in0.0 mm 0.00 in0.0 mm
12:45 AM 39.7°F4.3°C 37.3°F2.9°C 91% Calm Calm -- 30.05 in1017.6 mb 0.00 in0.0 mm 0.00 in0.0 mm 0.00 in0.0 mm
01:00 AM 39.4°F4.1°C 37.0°F2.8°C 91% Calm Calm -- 30.05 in1017.6 mb 0.01 in0.3 mm 0.01 in0.3 mm 0.01 in0.3 mm
01:15 AM 39.4°F4.1°C 37.0°F2.8°C 91% Calm Calm -- 30.04 in1017.3 mb 0.01 in0.3 mm 0.00 in0.0 mm 0.01 in0.3 mm
01:30 AM 38.5°F3.6°C 36.4°F2.4°C 92% Calm Calm 1.0 mph1.6 kmh 30.06 in1017.9 mb 0.01 in0.3 mm 0.00 in0.0 mm 0.01 in0.3 mm
01:45 AM 38.3°F3.5°C 36.2°F2.3°C 92% Calm Calm -- 30.05 in1017.6 mb 0.01 in0.3 mm 0.00 in0.0 mm 0.01 in0.3 mm
02:00 AM 37.9°F3.3°C 35.8°F2.1°C 92% Calm Calm -- 30.05 in1017.6 mb 0.00 in0.0 mm 0.00 in0.0 mm 0.01 in0.3 mm
02:15 AM 37.9°F3.3°C 35.8°F2.1°C 92% Calm Calm -- 30.04 in1017.3 mb 0.00 in0.0 mm 0.00 in0.0 mm 0.01 in0.3 mm
02:30 AM 37.9°F3.3°C 35.8°F2.1°C 92% Calm Calm -- 30.04 in1017.3 mb 0.00 in0.0 mm 0.00 in0.0 mm 0.01 in0.3 mm
02:45 AM 37.9°F3.3°C 36.1°F2.3°C 93% Calm Calm -- 30.05 in1017.6 mb 0.00 in0.0 mm 0.00 in0.0 mm 0.01 in0.3 mm
03:00 AM 38.1°F3.4°C 36.0°F2.2°C 92% Calm Calm -- 30.05 in1017.6 mb 0.00 in0.0 mm 0.00 in0.0 mm 0.01 in0.3 mm
03:15 AM 37.9°F3.3°C 35.8°F2.1°C 92% Calm Calm -- 30.05 in1017.6 mb 0.00 in0.0 mm 0.00 in0.0 mm 0.01 in0.3 mm
03:30 AM 38.1°F3.4°C 36.0°F2.2°C 92% Calm Calm -- 30.04 in1017.3 mb 0.00 in0.0 mm 0.00 in0.0 mm 0.01 in0.3 mm
03:45 AM 37.8°F3.2°C 35.6°F2.0°C 92% Calm Calm -- 30.04 in1017.3 mb 0.00 in0.0 mm 0.00 in0.0 mm 0.01 in0.3 mm
04:00 AM 37.6°F3.1°C 35.5°F1.9°C 92% Calm Calm -- 30.03 in1016.9 mb 0.00 in0.0 mm 0.00 in0.0 mm 0.01 in0.3 mm
04:15 AM 37.2°F2.9°C 35.1°F1.7°C 92% Calm Calm -- 30.04 in1017.3 mb 0.00 in0.0 mm 0.00 in0.0 mm 0.01 in0.3 mm
04:30 AM 37.0°F2.8°C 35.2°F1.8°C 93% Calm Calm -- 30.04 in1017.3 mb 0.00 in0.0 mm 0.00 in0.0 mm 0.01 in0.3 mm
04:45 AM 36.9°F2.7°C 35.0°F1.7°C 93% Calm Calm -- 30.04 in1017.3 mb 0.00 in0.0 mm 0.00 in0.0 mm 0.01 in0.3 mm
05:00 AM 37.2°F2.9°C 35.4°F1.9°C 93% Calm Calm -- 30.04 in1017.3 mb 0.00 in0.0 mm 0.00 in0.0 mm 0.01 in0.3 mm
05:15 AM 37.2°F2.9°C 35.4°F1.9°C 93% Calm Calm -- 30.04 in1017.3 mb 0.00 in0.0 mm 0.00 in0.0 mm 0.01 in0.3 mm
05:30 AM 37.6°F3.1°C 35.7°F2.1°C 93% Calm Calm -- 30.04 in1017.3 mb 0.00 in0.0 mm 0.00 in0.0 mm 0.01 in0.3 mm
05:45 AM 37.6°F3.1°C 35.7°F2.1°C 93% Calm Calm -- 30.03 in1016.9 mb 0.00 in0.0 mm 0.00 in0.0 mm 0.01 in0.3 mm
06:00 AM 37.6°F3.1°C 35.7°F2.1°C 93% Calm Calm -- 30.04 in1017.3 mb 0.00 in0.0 mm 0.00 in0.0 mm 0.01 in0.3 mm
06:15 AM 37.8°F3.2°C 35.9°F2.2°C 93% Calm Calm -- 30.04 in1017.3 mb 0.00 in0.0 mm 0.00 in0.0 mm 0.01 in0.3 mm
06:30 AM 37.6°F3.1°C 35.7°F2.1°C 93% Calm Calm -- 30.04 in1017.3 mb 0.00 in0.0 mm 0.00 in0.0 mm 0.01 in0.3 mm
06:45 AM 37.4°F3.0°C 35.6°F2.0°C 93% Calm Calm -- 30.03 in1016.9 mb 0.01 in0.3 mm 0.04 in1.0 mm 0.02 in0.5 mm
07:00 AM 37.6°F3.1°C 35.7°F2.1°C 93% Calm Calm -- 30.03 in1016.9 mb 0.01 in0.3 mm 0.00 in0.0 mm 0.02 in0.5 mm
07:15 AM 37.8°F3.2°C 35.9°F2.2°C 93% Calm Calm -- 30.02 in1016.6 mb 0.01 in0.3 mm 0.00 in0.0 mm 0.02 in0.5 mm
07:30 AM 37.4°F3.0°C 35.6°F2.0°C 93% Calm Calm -- 30.03 in1016.9 mb 0.01 in0.3 mm 0.00 in0.0 mm 0.02 in0.5 mm
07:45 AM 37.6°F3.1°C 35.7°F2.1°C 93% Calm Calm -- 30.01 in1016.3 mb 0.00 in0.0 mm 0.00 in0.0 mm 0.02 in0.5 mm
08:00 AM 37.6°F3.1°C 35.7°F2.1°C 93% Calm Calm -- 30.01 in1016.3 mb 0.01 in0.3 mm 0.01 in0.3 mm 0.02 in0.5 mm
08:15 AM 37.6°F3.1°C 35.7°F2.1°C 93% Calm Calm -- 30.01 in1016.3 mb 0.01 in0.3 mm 0.00 in0.0 mm 0.02 in0.5 mm
08:30 AM 37.6°F3.1°C 35.7°F2.1°C 93% Calm Calm -- 30.02 in1016.6 mb 0.01 in0.3 mm 0.00 in0.0 mm 0.02 in0.5 mm
08:45 AM 37.8°F3.2°C 35.9°F2.2°C 93% Calm Calm -- 30.01 in1016.3 mb 0.01 in0.3 mm 0.00 in0.0 mm 0.02 in0.5 mm
09:00 AM 38.1°F3.4°C 36.3°F2.4°C 93% Calm Calm -- 30.01 in1016.3 mb 0.00 in0.0 mm 0.00 in0.0 mm 0.02 in0.5 mm
09:15 AM 37.9°F3.3°C 36.1°F2.3°C 93% Calm Calm -- 30.01 in1016.3 mb 0.05 in1.3 mm 0.20 in5.1 mm 0.07 in1.8 mm
09:30 AM 37.4°F3.0°C 35.6°F2.0°C 93% Calm Calm -- 30.00 in1015.9 mb 0.06 in1.5 mm 0.04 in1.0 mm 0.09 in2.3 mm
09:45 AM 37.2°F2.9°C 35.4°F1.9°C 93% Calm Calm -- 30.01 in1016.3 mb 0.08 in2.0 mm 0.08 in2.0 mm 0.10 in2.5 mm
10:00 AM 37.6°F3.1°C 35.7°F2.1°C 93% Calm Calm -- 30.00 in1015.9 mb 0.09 in2.3 mm 0.01 in0.3 mm 0.12 in3.0 mm
10:15 AM 37.6°F3.1°C 35.7°F2.1°C 93% Calm Calm -- 30.00 in1015.9 mb 0.06 in1.5 mm 0.00 in0.0 mm 0.13 in3.3 mm
10:30 AM 37.8°F3.2°C 36.2°F2.3°C 94% Calm Calm 1.0 mph1.6 kmh 29.99 in1015.6 mb 0.04 in1.0 mm 0.00 in0.0 mm 0.13 in3.3 mm
10:45 AM 37.8°F3.2°C 36.2°F2.3°C 94% Calm Calm 3.0 mph4.8 kmh 29.98 in1015.2 mb 0.03 in0.8 mm 0.00 in0.0 mm 0.13 in3.3 mm
11:00 AM 37.6°F3.1°C 36.0°F2.2°C 94% 1.0 mph S1.6 kmh S 4.0 mph6.4 kmh 29.98 in1015.2 mb 0.02 in0.5 mm 0.00 in0.0 mm 0.14 in3.6 mm
11:15 AM 37.2°F2.9°C 35.7°F2.1°C 94% 1.0 mph S1.6 kmh S 3.0 mph4.8 kmh 29.97 in1014.9 mb 0.02 in0.5 mm 0.00 in0.0 mm 0.15 in3.8 mm
11:30 AM 37.2°F2.9°C 35.7°F2.1°C 94% Calm Calm 3.0 mph4.8 kmh 29.96 in1014.6 mb 0.02 in0.5 mm 0.00 in0.0 mm 0.15 in3.8 mm
11:45 AM 37.4°F3.0°C 35.8°F2.1°C 94% Calm Calm -- 29.94 in1013.9 mb 0.02 in0.5 mm 0.00 in0.0 mm 0.15 in3.8 mm
12:00 PM 37.9°F3.3°C 36.4°F2.4°C 94% Calm Calm -- 29.93 in1013.5 mb 0.02 in0.5 mm 0.00 in0.0 mm 0.16 in4.1 mm
12:15 PM 37.9°F3.3°C 36.4°F2.4°C 94% Calm Calm -- 29.92 in1013.2 mb 0.01 in0.3 mm 0.00 in0.0 mm 0.16 in4.1 mm
12:30 PM 38.3°F3.5°C 36.7°F2.6°C 94% Calm Calm -- 29.91 in1012.9 mb 0.01 in0.3 mm 0.00 in0.0 mm 0.16 in4.1 mm
12:45 PM 38.1°F3.4°C 36.5°F2.5°C 94% Calm Calm -- 29.90 in1012.5 mb 0.01 in0.3 mm 0.00 in0.0 mm 0.16 in4.1 mm
01:00 PM 38.3°F3.5°C 36.7°F2.6°C 94% Calm Calm -- 29.89 in1012.2 mb 0.00 in0.0 mm 0.00 in0.0 mm 0.16 in4.1 mm
01:15 PM 38.5°F3.6°C 36.9°F2.7°C 94% Calm Calm -- 29.89 in1012.2 mb 0.00 in0.0 mm 0.00 in0.0 mm 0.16 in4.1 mm
01:30 PM 39.0°F3.9°C 37.4°F3.0°C 94% Calm Calm -- 29.88 in1011.9 mb 0.00 in0.0 mm 0.00 in0.0 mm 0.16 in4.1 mm
01:45 PM 39.0°F3.9°C 37.4°F3.0°C 94% 2.0 mph S3.2 kmh S 5.0 mph8.0 kmh 29.87 in1011.5 mb 0.00 in0.0 mm 0.00 in0.0 mm 0.16 in4.1 mm
02:00 PM 38.8°F3.8°C 37.3°F2.9°C 94% 1.0 mph S1.6 kmh S 4.0 mph6.4 kmh 29.86 in1011.2 mb 0.00 in0.0 mm 0.00 in0.0 mm 0.16 in4.1 mm
02:15 PM 38.5°F3.6°C 36.9°F2.7°C 94% Calm Calm -- 29.84 in1010.5 mb 0.00 in0.0 mm 0.00 in0.0 mm 0.16 in4.1 mm
02:30 PM 38.8°F3.8°C 37.3°F2.9°C 94% Calm Calm 2.0 mph3.2 kmh 29.86 in1011.2 mb 0.00 in0.0 mm 0.00 in0.0 mm 0.16 in4.1 mm
02:45 PM 39.0°F3.9°C 37.4°F3.0°C 94% 1.0 mph S1.6 kmh S 5.0 mph8.0 kmh 29.87 in1011.5 mb 0.00 in0.0 mm 0.00 in0.0 mm 0.16 in4.1 mm
03:00 PM 38.5°F3.6°C 36.6°F2.6°C 93% 1.0 mph S1.6 kmh S 3.0 mph4.8 kmh 29.86 in1011.2 mb 0.00 in0.0 mm 0.00 in0.0 mm 0.16 in4.1 mm
03:15 PM 37.8°F3.2°C 35.9°F2.2°C 93% 2.0 mph S3.2 kmh S 5.0 mph8.0 kmh 29.85 in1010.8 mb 0.00 in0.0 mm 0.00 in0.0 mm 0.16 in4.1 mm
03:30 PM 37.4°F3.0°C 35.8°F2.1°C 94% Calm Calm 2.0 mph3.2 kmh 29.84 in1010.5 mb 0.00 in0.0 mm 0.00 in0.0 mm 0.16 in4.1 mm
03:45 PM 37.4°F3.0°C 35.8°F2.1°C 94% 2.0 mph S3.2 kmh S 4.0 mph6.4 kmh 29.84 in1010.5 mb 0.00 in0.0 mm 0.00 in0.0 mm 0.16 in4.1 mm
04:00 PM 37.6°F3.1°C 36.0°F2.2°C 94% Calm Calm 1.0 mph1.6 kmh 29.83 in1010.2 mb 0.00 in0.0 mm 0.00 in0.0 mm 0.16 in4.1 mm
04:15 PM 37.6°F3.1°C 36.0°F2.2°C 94% Calm Calm 4.0 mph6.4 kmh 29.84 in1010.5 mb 0.00 in0.0 mm 0.00 in0.0 mm 0.16 in4.1 mm
04:30 PM 37.2°F2.9°C 35.7°F2.1°C 94% Calm Calm 3.0 mph4.8 kmh 29.83 in1010.2 mb 0.00 in0.0 mm 0.00 in0.0 mm 0.16 in4.1 mm
04:45 PM 37.0°F2.8°C 35.5°F1.9°C 94% Calm Calm 3.0 mph4.8 kmh 29.82 in1009.8 mb 0.00 in0.0 mm 0.00 in0.0 mm 0.16 in4.1 mm
05:00 PM 36.9°F2.7°C 35.3°F1.8°C 94% 1.0 mph S1.6 kmh S 4.0 mph6.4 kmh 29.82 in1009.8 mb 0.00 in0.0 mm 0.00 in0.0 mm 0.16 in4.1 mm
05:15 PM 36.7°F2.6°C 35.1°F1.7°C 94% Calm Calm 3.0 mph4.8 kmh 29.82 in1009.8 mb 0.00 in0.0 mm 0.00 in0.0 mm 0.16 in4.1 mm
05:30 PM 36.7°F2.6°C 35.1°F1.7°C 94% 1.0 mph S1.6 kmh S 4.0 mph6.4 kmh 29.81 in1009.5 mb 0.00 in0.0 mm 0.00 in0.0 mm 0.16 in4.1 mm
05:45 PM 36.3°F2.4°C 34.8°F1.6°C 94% 1.0 mph S1.6 kmh S 4.0 mph6.4 kmh 29.81 in1009.5 mb 0.00 in0.0 mm 0.00 in0.0 mm 0.16 in4.1 mm
06:00 PM 36.3°F2.4°C 34.8°F1.6°C 94% 1.0 mph S1.6 kmh S 4.0 mph6.4 kmh 29.80 in1009.1 mb 0.00 in0.0 mm 0.00 in0.0 mm 0.16 in4.1 mm
06:15 PM 36.1°F2.3°C 34.6°F1.4°C 94% Calm Calm 2.0 mph3.2 kmh 29.80 in1009.1 mb 0.00 in0.0 mm 0.00 in0.0 mm 0.16 in4.1 mm
06:30 PM 36.0°F2.2°C 34.4°F1.3°C 94% Calm Calm 3.0 mph4.8 kmh 29.79 in1008.8 mb 0.00 in0.0 mm 0.00 in0.0 mm 0.16 in4.1 mm
06:45 PM 36.0°F2.2°C 34.4°F1.3°C 94% 1.0 mph S1.6 kmh S 4.0 mph6.4 kmh 29.79 in1008.8 mb 0.00 in0.0 mm 0.00 in0.0 mm 0.16 in4.1 mm
07:00 PM 36.0°F2.2°C 34.4°F1.3°C 94% 1.0 mph SSE1.6 kmh SSE 5.0 mph8.0 kmh 29.79 in1008.8 mb 0.00 in0.0 mm 0.00 in0.0 mm 0.16 in4.1 mm
07:15 PM 36.0°F2.2°C 34.4°F1.3°C 94% 1.0 mph SSE1.6 kmh SSE 3.0 mph4.8 kmh 29.79 in1008.8 mb 0.00 in0.0 mm 0.00 in0.0 mm 0.16 in4.1 mm
07:30 PM 36.0°F2.2°C 34.4°F1.3°C 94% Calm Calm 3.0 mph4.8 kmh 29.78 in1008.5 mb 0.00 in0.0 mm 0.00 in0.0 mm 0.16 in4.1 mm
07:45 PM 36.0°F2.2°C 34.4°F1.3°C 94% Calm Calm 3.0 mph4.8 kmh 29.77 in1008.1 mb 0.00 in0.0 mm 0.00 in0.0 mm 0.16 in4.1 mm
08:00 PM 36.1°F2.3°C 34.6°F1.4°C 94% Calm Calm -- 29.76 in1007.8 mb 0.00 in0.0 mm 0.00 in0.0 mm 0.16 in4.1 mm
08:15 PM 36.3°F2.4°C 34.8°F1.6°C 94% Calm Calm 4.0 mph6.4 kmh 29.76 in1007.8 mb 0.00 in0.0 mm 0.00 in0.0 mm 0.16 in4.1 mm
08:30 PM 36.1°F2.3°C 34.6°F1.4°C 94% 1.0 mph SSE1.6 kmh SSE 3.0 mph4.8 kmh 29.76 in1007.8 mb 0.00 in0.0 mm 0.00 in0.0 mm 0.16 in4.1 mm
08:45 PM 36.3°F2.4°C 34.8°F1.6°C 94% Calm Calm -- 29.76 in1007.8 mb 0.01 in0.3 mm 0.04 in1.0 mm 0.17 in4.3 mm
09:00 PM 36.3°F2.4°C 34.8°F1.6°C 94% Calm Calm -- 29.74 in1007.1 mb 0.02 in0.5 mm 0.01 in0.3 mm 0.18 in4.6 mm
09:15 PM 36.3°F2.4°C 34.8°F1.6°C 94% Calm Calm -- 29.72 in1006.4 mb 0.05 in1.3 mm 0.12 in3.0 mm 0.20 in5.1 mm
09:30 PM 36.3°F2.4°C 34.8°F1.6°C 94% Calm Calm -- 29.72 in1006.4 mb 0.07 in1.8 mm 0.08 in2.0 mm 0.23 in5.8 mm
09:45 PM 36.0°F2.2°C 34.4°F1.3°C 94% 1.0 mph SSE1.6 kmh SSE 4.0 mph6.4 kmh 29.70 in1005.8 mb 0.10 in2.5 mm 0.12 in3.0 mm 0.27 in6.9 mm
10:00 PM 36.1°F2.3°C 34.6°F1.4°C 94% 2.0 mph SSE3.2 kmh SSE 4.0 mph6.4 kmh 29.70 in1005.8 mb 0.10 in2.5 mm 0.00 in0.0 mm 0.28 in7.1 mm
10:15 PM 36.3°F2.4°C 34.8°F1.6°C 94% Calm Calm 3.0 mph4.8 kmh 29.70 in1005.8 mb 0.09 in2.3 mm 0.00 in0.0 mm 0.29 in7.4 mm
10:30 PM 36.3°F2.4°C 34.8°F1.6°C 94% 2.0 mph S3.2 kmh S 4.0 mph6.4 kmh 29.70 in1005.8 mb 0.11 in2.8 mm 0.08 in2.0 mm 0.34 in8.6 mm
10:45 PM 36.7°F2.6°C 35.1°F1.7°C 94% Calm Calm -- 29.68 in1005.1 mb 0.14 in3.6 mm 0.12 in3.0 mm 0.41 in10.4 mm
11:00 PM 36.9°F2.7°C 35.3°F1.8°C 94% Calm Calm -- 29.66 in1004.4 mb 0.19 in4.8 mm 0.07 in1.8 mm 0.47 in11.9 mm
11:15 PM 36.9°F2.7°C 35.3°F1.8°C 94% Calm Calm -- 29.65 in1004.1 mb 0.18 in4.6 mm 0.00 in0.0 mm 0.48 in12.2 mm
11:30 PM 37.0°F2.8°C 35.5°F1.9°C 94% Calm Calm -- 29.64 in1003.7 mb 0.15 in3.8 mm 0.00 in0.0 mm 0.49 in12.4 mm
11:45 PM 36.7°F2.6°C 35.1°F1.7°C 94% 2.0 mph S3.2 kmh S 5.0 mph8.0 kmh 29.64 in1003.7 mb 0.07 in1.8 mm 0.00 in0.0 mm 0.49 in12.4 mm